Time;durP1;ratioP1;P1;durP2;ratioP2;P2;SDS_P1;SDS_P2;PMS_P1;PMS_P2;Temp;Humidity;BMP_temperature;BMP_pressure;BME280_temperature;BME280_humidity;BME280_pressure;Samples;Min_cycle;Max_cycle;Signal;HPM_P1;HPM_P2
2021/08/12 00:01:04;;;;;;;;;24.75;23.50;;;;;20.80;63.98;101601.63;5071538;27;46571;-73
2021/08/12 00:03:29;;;;;;;;;27.00;23.75;;;;;20.77;63.82;101595.81;5071589;27;45585;-74
2021/08/12 00:05:54;;;;;;;;;21.50;20.25;;;;;20.72;64.22;101596.44;5082434;27;45489;-71
2021/08/12 00:08:20;;;;;;;;;25.75;23.25;;;;;20.67;64.00;101585.41;5068119;27;45485;-68
2021/08/12 00:10:50;;;;;;;;;23.50;21.00;;;;;20.63;64.34;101588.72;5077444;27;47112;-74
2021/08/12 00:13:16;;;;;;;;;21.25;19.50;;;;;20.60;64.50;101584.56;5071840;27;45400;-73
2021/08/12 00:15:41;;;;;;;;;21.75;21.50;;;;;20.58;64.45;101592.78;5065371;27;45554;-71
2021/08/12 00:18:07;;;;;;;;;20.75;20.75;;;;;20.59;64.14;101590.94;5071322;27;45508;-71
2021/08/12 00:20:32;;;;;;;;;21.50;20.50;;;;;20.59;65.58;101588.25;5077693;27;45534;-68
2021/08/12 00:22:57;;;;;;;;;25.00;21.25;;;;;20.54;64.48;101585.28;5073449;27;45471;-73
2021/08/12 00:25:22;;;;;;;;;20.50;20.25;;;;;20.53;65.14;101589.84;5081273;27;45423;-69
2021/08/12 00:27:48;;;;;;;;;22.50;19.50;;;;;20.51;65.38;101577.63;5081184;27;45496;-73
2021/08/12 00:30:13;;;;;;;;;18.50;18.00;;;;;20.49;64.92;101572.44;5071480;27;45699;-70
2021/08/12 00:32:38;;;;;;;;;25.00;22.00;;;;;20.50;64.51;101573.25;5062993;27;45375;-74
2021/08/12 00:35:04;;;;;;;;;20.25;20.25;;;;;20.51;65.51;101574.94;5074514;27;45424;-71
2021/08/12 00:37:30;;;;;;;;;25.75;23.25;;;;;20.47;64.97;101573.66;5070468;27;45554;-71
2021/08/12 00:39:55;;;;;;;;;31.75;24.25;;;;;20.45;64.89;101575.72;5068819;27;52343;-75
2021/08/12 00:42:22;;;;;;;;;26.00;25.00;;;;;20.40;65.28;101563.72;5072167;27;45908;-73
2021/08/12 00:44:47;;;;;;;;;32.75;28.00;;;;;20.37;65.06;101569.44;5086597;27;45401;-68
2021/08/12 00:47:13;;;;;;;;;33.75;27.25;;;;;20.33;66.25;101568.19;5072856;27;45538;-73
2021/08/12 00:49:39;;;;;;;;;32.50;28.75;;;;;20.31;65.25;101569.41;5078106;27;46508;-73
2021/08/12 00:52:06;;;;;;;;;32.00;29.00;;;;;20.29;65.97;101574.13;5075012;27;45451;-68
2021/08/12 00:54:35;;;;;;;;;31.25;29.00;;;;;20.28;66.12;101570.63;5079969;27;45434;-72
2021/08/12 00:57:02;;;;;;;;;30.25;28.75;;;;;20.26;66.05;101556.56;5063364;27;45474;-73
2021/08/12 00:59:34;;;;;;;;;36.00;31.25;;;;;20.26;65.84;101567.31;5083016;27;45582;-73
2021/08/12 01:01:59;;;;;;;;;36.00;32.00;;;;;20.27;65.60;101574.31;5052328;27;45685;-69
2021/08/12 01:04:25;;;;;;;;;31.25;30.75;;;;;20.27;66.33;101563.59;5062955;27;45584;-73
2021/08/12 01:07:01;;;;;;;;;28.00;25.50;;;;;20.26;65.62;101555.75;5056602;27;45617;-71
2021/08/12 01:09:37;;;;;;;;;33.00;30.00;;;;;20.27;66.16;101560.06;5082439;27;45675;-74
2021/08/12 01:12:10;;;;;;;;;33.25;31.50;;;;;20.26;65.92;101556.56;5069536;27;45437;-73
2021/08/12 01:14:56;;;;;;;;;27.25;26.00;;;;;20.25;66.42;101554.91;5070312;27;45627;-71
2021/08/12 01:17:25;;;;;;;;;30.75;27.00;;;;;20.23;65.75;101556.97;5072807;27;45433;-71
2021/08/12 01:20:06;;;;;;;;;32.00;27.25;;;;;20.22;66.52;101549.91;5068308;27;46623;-73
2021/08/12 01:22:46;;;;;;;;;36.25;31.25;;;;;20.20;66.35;101554.63;5069298;27;45427;-74
2021/08/12 01:25:26;;;;;;;;;27.00;22.50;;;;;20.18;67.43;101562.09;5079647;27;45425;-73
2021/08/12 01:27:54;;;;;;;;;34.50;31.25;;;;;20.16;66.32;101561.44;5078389;27;45634;-74
2021/08/12 01:30:30;;;;;;;;;33.50;28.75;;;;;20.15;66.33;101571.34;5072667;27;46167;-69
2021/08/12 01:33:34;;;;;;;;;31.00;28.50;;;;;20.14;67.00;101568.84;5081023;27;46265;-73
2021/08/12 01:36:02;;;;;;;;;29.50;28.50;;;;;20.12;67.17;101568.19;5075491;27;45640;-71
2021/08/12 01:38:30;;;;;;;;;26.75;22.50;;;;;20.07;67.34;101562.59;5069371;27;45963;-73
2021/08/12 01:40:58;;;;;;;;;37.75;27.25;;;;;20.02;67.04;101562.31;5077652;27;47686;-73
2021/08/12 01:43:29;;;;;;;;;25.25;23.00;;;;;19.98;67.77;101559.22;5071624;27;45642;-74
2021/08/12 01:45:59;;;;;;;;;33.00;30.25;;;;;19.95;67.49;101557.75;5067703;27;45472;-73
2021/08/12 01:48:26;;;;;;;;;36.50;31.75;;;;;19.93;67.16;101557.09;5068587;27;45434;-71
2021/08/12 01:50:52;;;;;;;;;33.00;30.00;;;;;19.92;66.99;101560.78;5071947;27;45474;-68
2021/08/12 01:53:20;;;;;;;;;31.25;28.75;;;;;19.93;67.83;101558.94;5073753;27;45977;-70
2021/08/12 01:55:46;;;;;;;;;34.25;32.50;;;;;19.91;67.06;101553.78;5068843;27;45576;-74
2021/08/12 01:58:14;;;;;;;;;34.75;31.50;;;;;19.91;67.14;101553.78;5068668;27;45600;-71
2021/08/12 02:00:43;;;;;;;;;32.25;30.00;;;;;19.90;67.12;101556.63;5070484;27;45478;-72
2021/08/12 02:03:08;;;;;;;;;37.25;31.75;;;;;19.87;67.16;101552.47;5073750;27;46026;-73
2021/08/12 02:05:34;;;;;;;;;35.00;31.25;;;;;19.86;67.38;101553.53;5067921;27;45517;-71
2021/08/12 02:08:01;;;;;;;;;41.00;33.50;;;;;19.85;67.55;101559.06;5073953;27;45488;-71
2021/08/12 02:10:26;;;;;;;;;35.00;29.75;;;;;19.84;68.56;101562.78;5047942;28;46705;-71
2021/08/12 02:12:52;;;;;;;;;37.75;30.75;;;;;19.82;68.54;101559.44;5071146;27;45582;-73
2021/08/12 02:15:17;;;;;;;;;29.00;29.00;;;;;19.81;68.18;101557.81;5076290;27;45583;-72
2021/08/12 02:17:43;;;;;;;;;31.00;30.00;;;;;19.79;68.11;101563.34;5081683;27;45347;-70
2021/08/12 02:20:11;;;;;;;;;46.50;32.00;;;;;19.80;67.94;101565.00;5076565;27;45951;-73
2021/08/12 02:22:42;;;;;;;;;32.50;31.00;;;;;19.79;68.67;101571.38;5076480;27;45392;-73
2021/08/12 02:25:16;;;;;;;;;36.50;30.50;;;;;19.75;68.84;101557.50;5055777;27;45457;-73
2021/08/12 02:27:44;;;;;;;;;30.50;29.00;;;;;19.73;68.20;101556.03;5069844;27;45483;-71
2021/08/12 02:30:12;;;;;;;;;26.00;23.50;;;;;19.69;68.33;101544.88;5073680;27;46341;-72
2021/08/12 02:32:40;;;;;;;;;28.50;25.50;;;;;19.67;67.80;101546.91;5074884;27;45410;-73
2021/08/12 02:35:08;;;;;;;;;33.25;27.50;;;;;19.62;68.49;101543.13;5078038;27;45447;-71
2021/08/12 02:37:36;;;;;;;;;28.75;26.50;;;;;19.57;68.96;101550.91;5078277;27;45344;-73
2021/08/12 02:40:03;;;;;;;;;30.25;25.00;;;;;19.53;68.65;101551.28;5075680;27;45584;-71
2021/08/12 02:42:29;;;;;;;;;30.50;26.25;;;;;19.51;69.12;101547.97;5071388;27;45571;-71
2021/08/12 02:44:54;;;;;;;;;29.50;28.50;;;;;19.48;69.35;101551.00;5071137;27;45459;-71
2021/08/12 02:47:22;;;;;;;;;28.75;25.50;;;;;19.47;69.71;101554.69;5069408;27;45679;-73
2021/08/12 02:49:51;;;;;;;;;26.00;23.25;;;;;19.45;69.49;101562.09;5065705;27;45448;-71
2021/08/12 02:52:18;;;;;;;;;29.25;25.00;;;;;19.42;69.75;101558.97;5059999;27;45604;-71
2021/08/12 02:54:46;;;;;;;;;21.25;20.00;;;;;19.39;69.27;101556.69;5067127;27;45499;-71
2021/08/12 02:57:12;;;;;;;;;19.25;17.25;;;;;19.37;69.22;101561.38;5072669;27;45557;-69
2021/08/12 02:59:41;;;;;;;;;21.25;17.50;;;;;19.34;69.44;101562.59;5064572;27;46597;-71
2021/08/12 03:02:08;;;;;;;;;19.75;18.25;;;;;19.31;69.56;101557.59;5069094;27;45783;-73
2021/08/12 03:04:33;;;;;;;;;22.00;21.25;;;;;19.27;69.45;101554.47;5079735;27;45865;-71
2021/08/12 03:06:59;;;;;;;;;20.25;16.00;;;;;19.25;69.71;101548.44;5078070;27;45756;-73
2021/08/12 03:09:26;;;;;;;;;18.75;16.00;;;;;19.23;69.34;101553.16;5083356;27;46195;-71
2021/08/12 03:11:55;;;;;;;;;18.00;17.75;;;;;19.20;69.46;101552.72;5071650;27;45550;-69
2021/08/12 03:14:21;;;;;;;;;17.00;16.50;;;;;19.18;69.79;101549.38;5075891;27;45469;-74
2021/08/12 03:16:47;;;;;;;;;18.00;15.75;;;;;19.14;69.28;101548.94;5075078;27;45466;-73
2021/08/12 03:19:16;;;;;;;;;18.00;15.75;;;;;19.13;69.81;101541.91;5065571;27;48010;-71
2021/08/12 03:22:10;;;;;;;;;17.50;17.50;;;;;19.12;69.98;101538.41;5076289;27;45497;-68
2021/08/12 03:24:39;;;;;;;;;18.50;16.50;;;;;19.11;69.25;101547.47;5070873;27;45606;-74
2021/08/12 03:27:08;;;;;;;;;14.75;14.00;;;;;19.10;70.10;101543.09;5081935;27;45448;-71
2021/08/12 03:29:33;;;;;;;;;13.25;13.00;;;;;19.09;69.33;101541.47;5073235;27;45710;-71
2021/08/12 03:31:59;;;;;;;;;18.00;14.25;;;;;19.06;69.39;101533.78;5086963;27;45459;-71
2021/08/12 03:34:24;;;;;;;;;18.75;16.50;;;;;19.04;69.95;101541.19;5083904;27;45526;-71
2021/08/12 03:36:49;;;;;;;;;17.50;16.00;;;;;19.05;69.78;101539.34;5078185;27;45590;-74
2021/08/12 03:39:15;;;;;;;;;17.25;16.25;;;;;19.04;69.39;101540.31;5073664;27;46455;-71
2021/08/12 03:41:40;;;;;;;;;14.75;14.75;;;;;19.03;70.42;101536.81;5082768;27;45466;-68
2021/08/12 03:44:06;;;;;;;;;14.75;14.75;;;;;19.03;70.75;101534.16;5073692;27;45434;-71
2021/08/12 03:46:32;;;;;;;;;18.75;16.25;;;;;19.02;70.95;101551.25;5078072;27;45480;-71
2021/08/12 03:48:57;;;;;;;;;16.25;13.75;;;;;19.01;70.53;101551.44;5072859;27;45603;-71
2021/08/12 03:51:22;;;;;;;;;15.25;14.50;;;;;19.03;70.02;101552.91;5074833;27;45518;-71
2021/08/12 03:53:48;;;;;;;;;19.25;15.00;;;;;19.02;69.79;101537.84;5080874;27;45704;-71
2021/08/12 03:56:13;;;;;;;;;14.00;13.00;;;;;19.04;69.92;101541.19;5054926;28;45748;-71
2021/08/12 03:58:40;;;;;;;;;15.25;13.00;;;;;19.04;69.77;101545.69;5072918;27;45609;-74
2021/08/12 04:01:06;;;;;;;;;14.00;11.50;;;;;19.04;70.11;101546.53;5077284;27;45530;-74
2021/08/12 04:03:31;;;;;;;;;14.50;14.50;;;;;19.03;69.29;101539.50;5079798;27;45611;-73
2021/08/12 04:05:57;;;;;;;;;11.50;11.50;;;;;19.04;69.63;101551.91;5051304;28;45547;-73
2021/08/12 04:08:22;;;;;;;;;10.25;10.25;;;;;19.04;69.08;101545.69;5074408;27;46452;-69
2021/08/12 04:10:47;;;;;;;;;13.75;11.75;;;;;19.02;69.30;101535.19;5070318;27;45582;-73
2021/08/12 04:13:12;;;;;;;;;11.50;11.50;;;;;19.03;68.81;101546.72;5072588;27;45531;-74
2021/08/12 04:15:38;;;;;;;;;14.75;12.25;;;;;19.01;69.04;101530.81;5078740;27;51697;-72
2021/08/12 04:18:04;;;;;;;;;13.25;13.25;;;;;19.02;69.22;101537.84;5052563;28;48195;-71
2021/08/12 04:20:29;;;;;;;;;15.75;13.50;;;;;19.01;69.39;101541.53;5073771;27;45553;-70
2021/08/12 04:22:54;;;;;;;;;10.50;10.00;;;;;19.01;68.97;101530.81;5080670;27;45488;-68
2021/08/12 04:25:20;;;;;;;;;14.00;10.75;;;;;19.01;69.30;101528.13;5076782;27;45596;-69
2021/08/12 04:27:45;;;;;;;;;11.50;10.00;;;;;19.02;68.91;101527.13;5076458;27;46164;-71
2021/08/12 04:30:11;;;;;;;;;13.50;12.25;;;;;19.01;69.12;101520.09;5071552;27;45373;-71
2021/08/12 04:32:37;;;;;;;;;14.00;11.25;;;;;19.01;69.33;101533.50;5079052;27;45520;-74
2021/08/12 04:35:07;;;;;;;;;12.50;12.50;;;;;19.01;68.74;101536.19;5076366;27;45490;-74
2021/08/12 04:37:37;;;;;;;;;14.50;10.75;;;;;19.00;69.06;101531.03;5073693;27;45611;-71
2021/08/12 04:40:04;;;;;;;;;9.75;9.25;;;;;18.99;69.01;101527.53;5072172;27;45527;-72
2021/08/12 04:42:30;;;;;;;;;12.75;12.75;;;;;18.99;69.74;101530.19;5071963;27;45397;-71
2021/08/12 04:44:55;;;;;;;;;16.00;15.00;;;;;18.97;69.39;101534.91;5073914;27;45641;-71
2021/08/12 04:47:20;;;;;;;;;19.00;13.75;;;;;18.97;69.28;101526.88;5072657;27;46883;-70
2021/08/12 04:49:46;;;;;;;;;15.00;14.75;;;;;18.97;69.75;101532.22;5071506;27;45573;-71
2021/08/12 04:52:11;;;;;;;;;14.50;14.50;;;;;18.96;69.37;101516.31;5062351;28;45433;-71
2021/08/12 04:54:37;;;;;;;;;17.75;14.25;;;;;18.94;69.31;101521.88;5052468;27;45331;-71
2021/08/12 04:57:02;;;;;;;;;13.25;13.25;;;;;18.91;69.48;101524.91;5067499;27;45463;-74
2021/08/12 04:59:27;;;;;;;;;18.25;14.25;;;;;18.91;69.58;101525.75;5071646;27;45545;-73
2021/08/12 05:01:54;;;;;;;;;16.00;12.25;;;;;18.91;69.50;101530.28;5051245;27;45540;-74
2021/08/12 05:04:19;;;;;;;;;13.50;13.00;;;;;18.93;69.45;101522.88;5075147;27;45636;-73
2021/08/12 05:06:44;;;;;;;;;12.00;12.00;;;;;18.98;69.33;101525.00;5068352;27;46675;-75
2021/08/12 05:09:10;;;;;;;;;11.25;10.75;;;;;19.03;69.03;101528.78;5068179;27;45478;-69
2021/08/12 05:11:35;;;;;;;;;12.50;11.25;;;;;19.07;68.75;101524.72;5070750;27;45535;-71
2021/08/12 05:14:00;;;;;;;;;12.25;11.00;;;;;19.14;68.67;101527.50;5071973;27;45607;-71
2021/08/12 05:16:26;;;;;;;;;15.75;14.25;;;;;19.20;68.75;101520.56;5076337;27;45741;-73
2021/08/12 05:18:51;;;;;;;;;13.75;12.50;;;;;19.27;68.51;101521.47;5080228;27;45453;-70
2021/08/12 05:21:16;;;;;;;;;13.75;13.25;;;;;19.33;69.14;101521.53;5067686;27;45484;-73
2021/08/12 05:23:42;;;;;;;;;15.00;13.50;;;;;19.36;68.21;101525.69;5080516;27;45431;-70
2021/08/12 05:26:07;;;;;;;;;14.75;12.50;;;;;19.36;68.68;101522.19;5074644;27;45495;-73
2021/08/12 05:28:32;;;;;;;;;16.25;13.00;;;;;19.32;68.31;101519.88;5069651;27;45529;-69
2021/08/12 05:31:02;;;;;;;;;15.00;15.00;;;;;19.34;68.25;101525.91;5069286;27;45523;-70
2021/08/12 05:33:27;;;;;;;;;17.75;16.00;;;;;19.38;68.10;101526.34;5070044;27;45541;-73
2021/08/12 05:35:53;;;;;;;;;17.25;13.25;;;;;19.43;68.18;101534.63;5078967;27;46705;-75
2021/08/12 05:38:18;;;;;;;;;16.00;13.00;;;;;19.44;68.00;101539.00;5082469;27;45880;-73
2021/08/12 05:40:43;;;;;;;;;17.00;16.25;;;;;19.51;68.60;101537.22;5070380;27;45369;-73
2021/08/12 05:43:09;;;;;;;;;16.50;15.50;;;;;19.57;68.24;101541.00;5069051;27;45649;-73
2021/08/12 05:45:34;;;;;;;;;19.00;16.25;;;;;19.61;67.83;101536.94;5073060;27;45408;-73
2021/08/12 05:47:59;;;;;;;;;17.00;16.00;;;;;19.63;67.67;101539.41;5084917;27;45508;-70
2021/08/12 05:50:25;;;;;;;;;17.50;17.25;;;;;19.67;67.55;101532.66;5075296;27;45547;-71
2021/08/12 05:52:50;;;;;;;;;15.50;14.50;;;;;19.73;68.11;101530.09;5068364;27;45522;-70
2021/08/12 05:55:15;;;;;;;;;16.75;14.50;;;;;19.80;67.70;101530.13;5070011;27;46574;-72
2021/08/12 05:57:41;;;;;;;;;13.25;11.00;;;;;19.87;67.25;101530.19;5067784;27;45748;-71
2021/08/12 06:00:08;;;;;;;;;14.00;13.50;;;;;19.93;67.02;101527.59;5069859;27;45407;-72
2021/08/12 06:02:33;;;;;;;;;15.25;13.50;;;;;19.97;66.77;101534.22;5076405;27;45503;-73
2021/08/12 06:04:58;;;;;;;;;15.00;14.50;;;;;20.00;66.78;101530.31;5070975;27;46268;-73
2021/08/12 06:07:24;;;;;;;;;16.25;14.00;;;;;20.05;66.98;101535.09;5075750;27;45560;-72
2021/08/12 06:09:49;;;;;;;;;15.00;13.25;;;;;20.10;67.13;101541.56;5071053;27;45576;-73
2021/08/12 06:12:14;;;;;;;;;14.00;12.50;;;;;20.17;67.39;101537.06;5069488;27;45510;-73
2021/08/12 06:14:40;;;;;;;;;15.50;14.75;;;;;20.24;67.45;101545.19;5070815;27;46617;-73
2021/08/12 06:17:06;;;;;;;;;12.50;11.50;;;;;20.33;67.15;101548.59;5062921;27;45464;-74
2021/08/12 06:19:31;;;;;;;;;19.50;16.50;;;;;20.43;66.19;101550.94;5074018;27;45455;-74
2021/08/12 06:21:56;;;;;;;;;17.00;15.25;;;;;20.46;66.18;101543.31;5057483;27;45499;-75
2021/08/12 06:24:21;;;;;;;;;17.75;12.50;;;;;20.52;66.05;101549.75;5077617;27;45607;-70
2021/08/12 06:26:47;;;;;;;;;15.00;14.50;;;;;20.62;66.25;101550.25;5069813;27;45614;-74
2021/08/12 06:29:12;;;;;;;;;17.25;15.00;;;;;20.78;65.98;101547.28;5070372;27;45503;-75
2021/08/12 06:31:39;;;;;;;;;17.25;15.00;;;;;20.96;65.19;101554.00;5070242;27;45477;-72
2021/08/12 06:34:05;;;;;;;;;14.25;10.50;;;;;21.03;65.04;101560.22;5069881;27;45530;-72
2021/08/12 06:36:33;;;;;;;;;15.75;13.50;;;;;21.12;64.35;101555.53;5069866;27;45964;-72
2021/08/12 06:38:59;;;;;;;;;13.00;12.00;;;;;21.12;64.33;101547.47;5081225;27;45770;-70
2021/08/12 06:41:26;;;;;;;;;15.75;14.00;;;;;21.05;64.36;101550.13;5078411;27;45578;-74
2021/08/12 06:43:51;;;;;;;;;10.75;10.75;;;;;21.03;64.21;101552.16;5076116;27;45543;-72
2021/08/12 06:46:17;;;;;;;;;13.50;12.25;;;;;21.04;63.98;101559.19;5068653;27;45484;-72
2021/08/12 06:48:42;;;;;;;;;10.00;9.75;;;;;21.02;63.76;101556.72;5051881;27;45409;-74
2021/08/12 06:51:08;;;;;;;;;16.50;11.50;;;;;21.09;63.86;101555.91;5077094;27;45537;-74
2021/08/12 06:53:33;;;;;;;;;16.25;13.50;;;;;21.25;63.70;101556.41;5069579;27;46121;-73
2021/08/12 06:55:58;;;;;;;;;19.75;16.50;;;;;21.40;63.30;101555.47;5069904;27;45523;-72
2021/08/12 06:58:24;;;;;;;;;13.50;11.00;;;;;21.53;62.83;101555.50;5078946;27;46010;-73
2021/08/12 07:00:49;;;;;;;;;13.75;12.75;;;;;21.63;63.03;101552.44;5058417;27;45528;-69
2021/08/12 07:03:14;;;;;;;;;12.75;11.25;;;;;21.73;63.13;101558.25;5083227;27;45349;-71
2021/08/12 07:05:40;;;;;;;;;16.50;13.75;;;;;21.86;62.50;101547.53;5059953;27;45564;-72
2021/08/12 07:08:05;;;;;;;;;16.25;14.25;;;;;21.98;62.00;101549.59;5070095;27;45424;-74
2021/08/12 07:10:31;;;;;;;;;13.00;12.75;;;;;22.12;62.10;101545.91;5070481;27;45511;-74
2021/08/12 07:12:56;;;;;;;;;13.00;11.75;;;;;22.22;61.58;101535.56;5065685;27;46231;-75
2021/08/12 07:15:22;;;;;;;;;22.75;17.50;;;;;22.35;62.06;101534.75;5074718;27;45569;-71
2021/08/12 07:17:47;;;;;;;;;16.00;14.75;;;;;22.56;62.11;101530.19;5056162;27;45551;-73
2021/08/12 07:20:13;;;;;;;;;20.00;17.00;;;;;22.77;61.35;101538.00;5069991;27;45820;-72
2021/08/12 07:22:39;;;;;;;;;15.75;13.50;;;;;22.86;59.83;101531.34;5073589;27;46026;-72
2021/08/12 07:25:04;;;;;;;;;11.25;11.25;;;;;22.90;59.59;101537.16;5052741;27;45822;-74
2021/08/12 07:27:30;;;;;;;;;13.75;12.75;;;;;22.96;60.27;101542.50;5074287;27;51002;-74
2021/08/12 07:29:55;;;;;;;;;11.25;11.00;;;;;23.13;59.76;101542.91;5078382;27;45548;-75
2021/08/12 07:32:20;;;;;;;;;10.25;9.50;;;;;23.48;57.64;101539.03;5077491;27;46574;-72
2021/08/12 07:34:46;;;;;;;;;10.25;10.00;;;;;23.64;59.03;101538.53;5071083;27;45436;-72
2021/08/12 07:37:11;;;;;;;;;9.75;8.50;;;;;24.11;58.55;101547.16;5068043;27;45815;-72
2021/08/12 07:39:37;;;;;;;;;12.25;11.50;;;;;24.58;57.55;101544.91;5074176;27;45475;-72
2021/08/12 07:42:02;;;;;;;;;9.25;9.00;;;;;25.60;57.02;101536.22;5081453;27;45507;-75
2021/08/12 07:44:28;;;;;;;;;12.00;10.00;;;;;27.61;50.78;101535.09;5051390;27;45905;-73
2021/08/12 07:46:53;;;;;;;;;12.00;11.25;;;;;29.64;46.48;101525.72;5072502;27;45505;-75
2021/08/12 07:49:19;;;;;;;;;9.25;9.00;;;;;31.04;41.75;101522.63;5077944;27;45505;-72
2021/08/12 07:51:44;;;;;;;;;10.25;10.25;;;;;32.48;43.71;101520.81;5049539;28;48067;-75
2021/08/12 07:54:09;;;;;;;;;11.00;9.50;;;;;34.15;39.45;101527.56;5072343;27;45460;-69
2021/08/12 07:56:35;;;;;;;;;9.75;9.75;;;;;34.15;39.52;101524.00;5074199;27;45487;-72
2021/08/12 07:59:00;;;;;;;;;9.75;9.00;;;;;33.94;39.40;101528.84;5071938;27;45591;-75
2021/08/12 08:01:25;;;;;;;;;12.00;11.00;;;;;33.77;39.07;101532.00;5050447;28;47878;-75
2021/08/12 08:03:52;;;;;;;;;14.50;11.75;;;;;33.38;37.32;101535.53;5055156;27;45856;-72
2021/08/12 08:06:18;;;;;;;;;12.00;11.00;;;;;32.89;39.16;101536.28;5083166;27;45555;-75
2021/08/12 08:08:43;;;;;;;;;12.25;11.25;;;;;33.19;39.61;101535.38;5050372;27;45462;-72
2021/08/12 08:11:09;;;;;;;;;10.25;10.25;;;;;33.53;38.42;101534.59;5054030;28;47285;-73
2021/08/12 08:13:34;;;;;;;;;12.25;11.25;;;;;33.73;36.72;101539.13;5066268;27;46022;-70
2021/08/12 08:16:00;;;;;;;;;11.50;11.50;;;;;34.13;36.54;101531.72;5072873;27;45558;-72
2021/08/12 08:18:26;;;;;;;;;13.00;11.00;;;;;34.31;36.89;101530.97;5077675;27;45475;-75
2021/08/12 08:20:52;;;;;;;;;10.00;10.00;;;;;34.65;37.65;101530.91;5076370;27;46586;-75
2021/08/12 08:23:17;;;;;;;;;13.00;11.00;;;;;34.75;33.78;101535.44;5072886;27;45413;-75
2021/08/12 08:25:43;;;;;;;;;14.00;11.50;;;;;34.54;34.11;101528.53;5048096;27;45379;-71
2021/08/12 08:28:08;;;;;;;;;12.25;9.25;;;;;34.14;36.65;101527.84;5071917;27;45445;-74
2021/08/12 08:30:35;;;;;;;;;11.75;11.00;;;;;34.00;36.88;101531.25;5056364;27;47159;-75
2021/08/12 08:33:01;;;;;;;;;13.50;10.75;;;;;34.12;37.54;101525.38;5072274;27;45581;-69
2021/08/12 08:35:28;;;;;;;;;10.50;10.00;;;;;34.47;36.12;101526.97;5072073;27;45476;-72
2021/08/12 08:37:55;;;;;;;;;12.75;11.75;;;;;35.03;34.32;101521.91;5066783;27;45428;-70
2021/08/12 08:40:21;;;;;;;;;11.00;10.50;;;;;35.08;35.28;101524.56;5058755;27;47326;-70
2021/08/12 08:42:46;;;;;;;;;12.25;11.50;;;;;35.28;35.47;101529.00;5075076;27;45418;-72
2021/08/12 08:45:16;;;;;;;;;11.00;10.00;;;;;35.93;34.68;101531.00;5070318;27;45665;-74
2021/08/12 08:47:42;;;;;;;;;10.75;9.75;;;;;36.48;33.72;101528.38;5068497;27;45488;-70
2021/08/12 08:50:09;;;;;;;;;11.50;9.75;;;;;36.48;33.84;101533.06;5068002;27;46171;-75
2021/08/12 08:52:35;;;;;;;;;11.25;10.75;;;;;36.64;33.84;101536.34;5070003;27;45562;-72
2021/08/12 08:55:00;;;;;;;;;11.00;8.75;;;;;36.67;32.50;101538.47;5078115;27;45406;-75
2021/08/12 08:57:26;;;;;;;;;11.00;9.50;;;;;36.72;33.90;101535.63;5050423;28;45512;-75
2021/08/12 08:59:51;;;;;;;;;11.25;11.25;;;;;36.49;32.48;101546.50;5068334;27;46570;-71
2021/08/12 09:02:17;;;;;;;;;10.00;8.25;;;;;36.10;32.84;101550.53;5085305;27;45347;-72
2021/08/12 09:04:42;;;;;;;;;9.00;9.00;;;;;35.77;33.77;101554.38;5072740;27;45874;-73
2021/08/12 09:07:08;;;;;;;;;7.00;7.00;;;;;35.47;33.67;101553.72;5074642;27;45411;-72
2021/08/12 09:09:35;;;;;;;;;9.00;7.75;;;;;35.45;35.15;101554.00;5062881;27;46298;-75
2021/08/12 09:12:02;;;;;;;;;10.75;7.75;;;;;35.54;34.79;101554.97;5079484;27;56120;-75
2021/08/12 09:14:39;;;;;;;;;13.00;8.50;;;;;35.64;33.95;101565.03;5071980;27;45532;-74
2021/08/12 09:17:26;;;;;;;;;9.75;8.75;;;;;35.66;33.50;101564.72;5075128;27;45594;-72
2021/08/12 09:20:09;;;;;;;;;9.25;8.00;;;;;35.81;34.62;101553.50;5073354;27;46469;-71
2021/08/12 09:22:46;;;;;;;;;9.75;8.75;;;;;35.89;34.61;101555.53;5065797;27;45463;-69
2021/08/12 09:25:12;;;;;;;;;7.75;7.75;;;;;35.99;34.96;101560.06;5071962;27;45590;-72
2021/08/12 09:27:38;;;;;;;;;9.00;8.75;;;;;36.05;34.40;101552.53;5068067;27;45567;-75
2021/08/12 09:30:15;;;;;;;;;7.25;7.25;;;;;36.12;34.04;101559.28;5070287;27;45712;-72
2021/08/12 09:32:48;;;;;;;;;10.25;9.25;;;;;36.02;33.10;101555.88;5072276;27;45453;-75
2021/08/12 09:35:22;;;;;;;;;9.75;9.75;;;;;35.82;33.64;101554.28;5068908;27;45671;-75
2021/08/12 09:37:48;;;;;;;;;9.00;7.50;;;;;35.87;34.98;101556.97;5066068;27;45491;-75
2021/08/12 09:40:13;;;;;;;;;9.00;8.50;;;;;36.15;34.14;101549.63;5070020;27;45883;-72
2021/08/12 09:42:55;;;;;;;;;10.00;7.75;;;;;36.09;32.87;101548.09;5067661;27;45481;-72
2021/08/12 09:45:28;;;;;;;;;9.00;9.00;;;;;35.83;34.06;101539.41;5068348;27;45369;-72
2021/08/12 09:47:55;;;;;;;;;10.50;10.00;;;;;35.66;33.26;101543.56;5050110;27;45441;-76
2021/08/12 09:50:32;;;;;;;;;7.50;7.50;;;;;35.49;33.14;101546.81;5075408;27;46494;-75
2021/08/12 09:52:58;;;;;;;;;9.50;9.50;;;;;35.33;34.67;101545.41;5066584;27;45428;-72
2021/08/12 09:55:24;;;;;;;;;8.00;7.00;;;;;35.63;34.75;101541.38;5046974;28;45631;-71
2021/08/12 09:58:05;;;;;;;;;10.75;9.75;;;;;36.12;35.29;101542.78;5069782;27;45630;-72
2021/08/12 10:00:32;;;;;;;;;11.00;9.25;;;;;36.39;33.42;101536.50;5071509;27;46425;-70
2021/08/12 10:02:59;;;;;;;;;6.50;6.00;;;;;36.49;31.25;101535.50;5082258;27;45416;-72
2021/08/12 10:05:24;;;;;;;;;8.50;8.00;;;;;36.50;34.12;101537.13;5071397;27;45536;-73
2021/08/12 10:07:53;;;;;;;;;11.00;11.00;;;;;36.64;31.73;101539.09;5067519;27;45441;-73
2021/08/12 10:10:23;;;;;;;;;8.00;8.00;;;;;36.36;30.99;101528.06;5068934;27;46567;-72
2021/08/12 10:12:49;;;;;;;;;10.25;7.00;;;;;36.08;32.34;101533.53;5061940;27;45566;-72
2021/08/12 10:15:18;;;;;;;;;11.50;9.00;;;;;35.97;31.36;101534.78;5067887;27;45646;-74
2021/08/12 10:17:45;;;;;;;;;9.25;9.00;;;;;35.99;33.77;101537.25;5079219;27;45832;-75
2021/08/12 10:20:18;;;;;;;;;12.00;8.75;;;;;36.36;33.92;101525.31;5067897;27;46681;-75
2021/08/12 10:22:45;;;;;;;;;10.25;10.00;;;;;36.69;33.44;101523.28;5067874;27;45568;-70
2021/08/12 10:25:12;;;;;;;;;12.00;10.00;;;;;36.99;31.36;101521.81;5066787;27;45498;-70
2021/08/12 10:27:40;;;;;;;;;9.50;7.75;;;;;37.31;33.28;101528.28;5071725;27;45456;-74
2021/08/12 10:30:07;;;;;;;;;12.50;10.50;;;;;37.71;33.01;101528.44;5072162;27;46251;-73
2021/08/12 10:32:35;;;;;;;;;11.00;9.75;;;;;37.77;31.42;101531.91;5083118;27;45504;-75
2021/08/12 10:35:03;;;;;;;;;9.25;8.50;;;;;37.67;32.55;101524.69;5051950;28;45499;-75
2021/08/12 10:37:28;;;;;;;;;8.75;8.50;;;;;37.63;31.82;101530.00;5066199;27;45393;-74
2021/08/12 10:39:54;;;;;;;;;9.75;9.00;;;;;37.97;32.16;101522.28;5071242;27;45749;-74
2021/08/12 10:42:19;;;;;;;;;10.25;9.00;;;;;38.21;31.39;101519.19;5067387;27;45540;-72
2021/08/12 10:44:45;;;;;;;;;11.00;10.25;;;;;38.39;31.53;101522.81;5055409;27;45765;-71
2021/08/12 10:47:41;;;;;;;;;10.00;9.50;;;;;38.55;31.89;101526.78;5076185;27;45495;-70
2021/08/12 10:50:36;;;;;;;;;13.50;13.25;;;;;38.95;30.79;101514.88;5070908;27;45668;-74
2021/08/12 10:53:04;;;;;;;;;11.00;10.00;;;;;39.25;27.86;101515.88;5066427;27;45564;-74
2021/08/12 10:55:30;;;;;;;;;10.75;10.75;;;;;39.11;28.99;101522.38;5072916;27;45417;-73
2021/08/12 10:58:17;;;;;;;;;9.50;8.25;;;;;38.97;29.15;101516.19;5075204;27;45726;-70
2021/08/12 11:00:51;;;;;;;;;10.75;9.25;;;;;39.02;30.18;101515.22;5043275;27;47248;-72
2021/08/12 11:03:43;;;;;;;;;10.50;9.50;;;;;39.09;28.40;101513.59;5068500;27;45643;-73
2021/08/12 11:06:17;;;;;;;;;9.00;9.00;;;;;38.80;27.74;101521.66;5064755;27;45693;-75
2021/08/12 11:08:48;;;;;;;;;8.75;8.75;;;;;38.83;29.86;101524.59;5069100;27;45614;-75
2021/08/12 11:11:23;;;;;;;;;10.50;9.75;;;;;39.02;30.15;101517.97;5069062;27;45621;-74
2021/08/12 11:13:50;;;;;;;;;9.25;8.25;;;;;39.17;27.91;101519.44;5075799;27;45524;-76